Terminal Aerodrome Forecast
Issued by NWS Rapid City, SD

Home | Current Version | Previous Version | Graphics & Text | Print | Product List | Glossary On
Versions: 1 2 3 4 5 6 7 8 9 10 11 12 13 14 15 16 17 18 19 20 21 22
480
FTUS43 KUNR 240520
TAFRAP
TAF
KRAP 240520Z 2406/2506 35012KT P6SM -SHRA BKN050 BKN080
     FM240700 33013KT P6SM BKN040 BKN100
     FM241500 33018G30KT P6SM BKN100
     FM250000 04013KT P6SM BKN050=

USA.gov is the U.S. government's official web portal to all federal, state and local government web resources and services.